CMA CGM Homere — MQBL6 — position and weather

sailwx.info

Track history (hours):
 
Tides and Currents Weather Stations Pressure Air Temp Water Temp Dewpoint Dewpoint Depression Visibility Wind Speed Wind Dir Waves Ship Positions

CMA CGM Homere

Last reported at 2015-Jul-02 03:31 UTC. Time now 2015-Jul-04 07:00 UTC.
Position N 49°58' W 003°21'.

Length 170 m; draft 8.6 m.

Type: Ship (hazmat cat A). MMSI: 235052314.

Date/timePositionNaut miles runAvg speedWind from/ knotsBaromVisibWave heightAir tempDewpointWater temp
2015-Jul-02 03:31N 49°58' W 003°21'1919.6
2015-Jul-02 02:33N 50°01' W 002°52'2120.8
2015-Jul-02 01:34N 50°05' W 002°21'2221.3
2015-Jul-02 00:32N 49°59' W 001°48'2121.0
2015-Jul-01 23:33N 49°51' W 001°18'2019.5
2015-Jul-01 22:33N 49°44' W 000°51'1817.9
2015-Jul-01 21:33N 49°36' W 000°26'1615.8
2015-Jul-01 20:34N 49°29' W 000°03'9 8.6
2015-Jul-01 19:32N 49°29' E 000°10'0 0.0
2015-Jul-01 18:32N 49°29' E 000°10'0 0.0
2015-Jul-01 17:32N 49°29' E 000°10'0 0.0
2015-Jul-01 16:32N 49°29' E 000°10'0 0.0
2015-Jul-01 15:32N 49°29' E 000°10'0 0.0
2015-Jul-01 14:32N 49°29' E 000°10'0 0.0
2015-Jul-01 13:32N 49°29' E 000°10'0 0.0
2015-Jul-01 12:32N 49°29' E 000°10'0 0.0
2015-Jul-01 11:29N 49°29' E 000°10'0 0.0
2015-Jul-01 10:32N 49°29' E 000°10'0 0.0
2015-Jul-01 09:32N 49°29' E 000°10'0 0.0
2015-Jul-01 08:32N 49°29' E 000°10'0 0.0
2015-Jul-01 07:32N 49°29' E 000°10'0 0.0
2015-Jul-01 06:32N 49°29' E 000°10'0 0.0
2015-Jul-01 05:32N 49°29' E 000°10'0 0.0
2015-Jul-01 04:32N 49°29' E 000°10'0 0.0
2015-Jul-01 03:32N 49°29' E 000°10'0 0.0
2015-Jul-01 02:32N 49°29' E 000°10'0 0.0
2015-Jul-01 01:32N 49°29' E 000°10'0 0.0
2015-Jul-01 00:32N 49°29' E 000°10'0 0.0
2015-Jun-30 23:32N 49°29' E 000°10'0 0.0
2015-Jun-30 22:33N 49°29' E 000°10'0 0.3
2015-Jun-30 21:33N 49°28' E 000°10'2 1.6
2015-Jun-30 20:33N 49°28' E 000°07'6 5.5
2015-Jun-30 19:31N 49°29' W 000°01'0 0.1
2015-Jun-30 18:31N 49°29' W 000°01'0 0.2
2015-Jun-30 17:31N 49°29' W 000°02'0 0.0
2015-Jun-30 16:31N 49°29' W 000°02'0 0.0
2015-Jun-30 15:31N 49°29' W 000°02'0 0.0
2015-Jun-30 14:31N 49°29' W 000°02'0 0.0
2015-Jun-30 13:28N 49°29' W 000°02'0 0.0
2015-Jun-30 12:31N 49°29' W 000°02'0 0.0
2015-Jun-30 11:31N 49°29' W 000°02'0 0.0
2015-Jun-30 10:31N 49°29' W 000°02'0 0.1
2015-Jun-30 09:31N 49°29' W 000°01'0 0.0
2015-Jun-30 08:31N 49°29' W 000°01'0 0.0
2015-Jun-30 07:31N 49°29' W 000°01'0 0.2
2015-Jun-30 06:31N 49°29' W 000°02'0 0.1
2015-Jun-30 05:31N 49°29' W 000°02'0 0.1
2015-Jun-30 04:31N 49°29' W 000°02'0 0.0
2015-Jun-30 03:31N 49°29' W 000°02'0 0.0
2015-Jun-30 02:31N 49°29' W 000°02'0 0.0
2015-Jun-30 01:31N 49°29' W 000°02'0 0.0
2015-Jun-30 00:31N 49°29' W 000°02'0 0.0
2015-Jun-29 23:31N 49°29' W 000°02'0 0.2
2015-Jun-29 22:31N 49°29' W 000°01'0 0.0
2015-Jun-29 21:31N 49°29' W 000°01'0 0.0
2015-Jun-29 20:31N 49°29' W 000°01'0 0.1
2015-Jun-29 19:31N 49°29' W 000°01'9 9.1
2015-Jun-29 18:34N 49°26' E 000°11'1111.1
2015-Jun-29 17:34N 49°28' E 000°27'8 7.8
2015-Jun-29 16:34N 49°27' E 000°39'5 5.1
2015-Jun-29 15:32N 49°29' E 000°47'6 4.1
2015-Jun-29 14:08N 49°28' E 000°56'7 0.9
2015-Jun-29 06:08N 49°21' E 000°59'0 0.0
2015-Jun-28 20:28N 49°21' E 000°59'7 5.3
2015-Jun-28 19:08N 49°28' E 000°56'4 6.6
2015-Jun-28 18:28N 49°24' E 000°52'8 8.5
2015-Jun-28 17:31N 49°31' E 000°45'9 8.9
2015-Jun-28 16:33N 49°26' E 000°34'1010.2
2015-Jun-28 15:34N 49°26' E 000°19'1312.7
2015-Jun-28 14:33N 49°28' W 000°01'1110.6
2015-Jun-28 13:33N 49°33' W 000°15'1010.1
2015-Jun-28 12:33N 49°40' W 000°25'9 9.1
2015-Jun-28 11:33N 49°49' W 000°26'3410.9
2015-Jun-28 08:25N 50°21' W 000°06'910.8
2015-Jun-28 07:32N 50°29' E 000°03'1110.4
2015-Jun-28 06:30N 50°32' E 000°19'1010.3
2015-Jun-28 05:34N 50°35' E 000°34'1110.5
2015-Jun-28 04:33N 50°41' E 000°47'1211.9
2015-Jun-28 03:33N 50°49' E 001°01'1312.6
2015-Jun-28 02:31N 50°58' E 001°16'1212.5
2015-Jun-28 01:33N 51°06' E 001°30'1110.9
2015-Jun-28 00:33N 51°16' E 001°37'1111.2
2015-Jun-27 23:33N 51°26' E 001°29'1515.1
2015-Jun-27 22:33N 51°30' E 001°05'1717.1
2015-Jun-27 21:34N 51°30' E 000°38'1111.4
2015-Jun-27 20:33N 51°27' E 000°20'0 0.3
2015-Jun-27 19:33N 51°27' E 000°20'0 0.0
2015-Jun-27 18:34N 51°27' E 000°20'0 0.0
2015-Jun-27 17:34N 51°27' E 000°20'0 0.0
2015-Jun-27 16:34N 51°27' E 000°20'0 0.0
2015-Jun-27 15:34N 51°27' E 000°20'0 0.0
2015-Jun-27 14:34N 51°27' E 000°20'0 0.0
2015-Jun-27 13:34N 51°27' E 000°20'0 0.0
2015-Jun-27 12:34N 51°27' E 000°20'0 0.0
2015-Jun-27 11:34N 51°27' E 000°20'0 0.0
2015-Jun-27 10:34N 51°27' E 000°20'0 0.0
2015-Jun-27 09:34N 51°27' E 000°20'1 1.3
2015-Jun-27 08:33N 51°27' E 000°22'9 8.7
2015-Jun-27 07:33N 51°30' E 000°35'1313.4
2015-Jun-27 06:34N 51°29' E 000°56'1414.4
2015-Jun-27 05:34N 51°29' E 001°20'1010.0
2015-Jun-27 04:33N 51°29' E 001°36'1514.7
2015-Jun-27 03:34N 51°35' E 001°57'4816.1
2015-Jun-27 00:33N 52°02' E 003°02'1515.4
2015-Jun-26 23:33N 52°03' E 003°27'1414.5
2015-Jun-26 22:33N 52°03' E 003°50'1110.6
2015-Jun-26 21:33N 51°59' E 004°06'1010.4
2015-Jun-26 20:33N 51°54' E 004°20'3 2.6
2015-Jun-26 19:33N 51°53' E 004°24'0 0.0
2015-Jun-26 18:33N 51°53' E 004°24'0 0.0
2015-Jun-26 17:33N 51°53' E 004°24'0 0.0
2015-Jun-26 16:33N 51°53' E 004°24'0 0.0
2015-Jun-26 15:33N 51°53' E 004°24'0 0.0
2015-Jun-26 14:33N 51°53' E 004°24'0 0.0
2015-Jun-26 13:33N 51°53' E 004°24'0 0.0
2015-Jun-26 12:33N 51°53' E 004°24'0 0.0
2015-Jun-26 11:33N 51°53' E 004°24'0 0.0
2015-Jun-26 10:33N 51°53' E 004°24'0 0.0
2015-Jun-26 09:33N 51°53' E 004°24'0 0.0
2015-Jun-26 08:33N 51°53' E 004°24'0 0.0
2015-Jun-26 07:30N 51°53' E 004°24'0 0.0
2015-Jun-26 06:33N 51°53' E 004°24'0 0.0
2015-Jun-26 05:31N 51°53' E 004°24'0 0.0
2015-Jun-26 04:31N 51°53' E 004°24'0 0.0
2015-Jun-26 03:31N 51°53' E 004°24'0 0.0
2015-Jun-26 02:31N 51°53' E 004°24'0 0.0
2015-Jun-26 01:28N 51°53' E 004°24'0 0.0
2015-Jun-26 00:31N 51°53' E 004°24'0 0.0
2015-Jun-25 23:31N 51°53' E 004°24'0 0.0
2015-Jun-25 22:31N 51°53' E 004°24'0 0.0
2015-Jun-25 21:31N 51°53' E 004°24'0 0.1
2015-Jun-25 20:34N 51°53' E 004°24'6 6.5
2015-Jun-25 19:33N 51°55' E 004°14'1111.3
2015-Jun-25 18:33N 51°60' E 003°58'1212.4
2015-Jun-25 17:33N 51°58' E 003°38'1717.1
2015-Jun-25 16:33N 51°52' E 003°12'1918.4
2015-Jun-25 15:33N 51°46' E 002°43'1717.6
2015-Jun-25 14:34N 51°35' E 002°23'1817.8
2015-Jun-25 13:34N 51°22' E 002°02'1817.5
2015-Jun-25 12:34N 51°09' E 001°44'1817.5
2015-Jun-25 11:34N 50°55' E 001°27'1717.5
2015-Jun-25 10:33N 50°39' E 001°15'1817.7
2015-Jun-25 09:33N 50°29' E 000°52'1818.3
2015-Jun-25 08:33N 50°24' E 000°25'1818.3
2015-Jun-25 07:33N 50°20' W 000°03'1818.2
2015-Jun-25 06:34N 50°16' W 000°31'1818.3
2015-Jun-25 05:34N 50°11' W 000°59'1919.1
2015-Jun-25 04:33N 50°05' W 001°27'2019.9
2015-Jun-25 03:34N 49°60' W 001°57'2120.6
2015-Jun-25 02:32N 49°54' W 002°28'2120.3
2015-Jun-25 01:32N 49°47' W 002°58'2020.1
2015-Jun-25 00:33N 49°38' W 003°25'2220.0
2015-Jun-24 23:28N 49°27' W 003°54'2020.1
2015-Jun-24 22:30N 49°18' W 004°20'1920.1
2015-Jun-24 21:33N 49°08' W 004°45'2020.0
2015-Jun-24 20:34N 48°57' W 005°11'1919.1
2015-Jun-24 19:33N 48°47' W 005°36'1514.8
2015-Jun-24 18:33N 48°35' W 005°47'1717.4
2015-Jun-24 17:33N 48°19' W 005°60'1919.3
2015-Jun-24 16:34N 48°02' W 006°13'1919.3
2015-Jun-24 15:34N 47°45' W 006°26'1918.9
2015-Jun-24 14:34N 47°28' W 006°39'1919.4
2015-Jun-24 13:33N 47°11' W 006°52'2019.6
2015-Jun-24 12:33N 46°54' W 007°05'2319.6
2015-Jun-24 11:24N 46°34' W 007°21'63915.5
2015-Jun-22 18:08N 35°58' W 005°55'1317.5
2015-Jun-22 17:22N 35°58' W 005°38'1315.7
2015-Jun-22 16:34N 36°03' W 005°24'5 4.7
2015-Jun-22 15:33N 36°08' W 005°25'0 0.1
2015-Jun-22 14:18N 36°08' W 005°25'0 0.0
2015-Jun-22 13:33N 36°08' W 005°25'0 0.1
2015-Jun-22 12:24N 36°08' W 005°25'0 0.0
2015-Jun-22 11:33N 36°08' W 005°25'0 0.0
2015-Jun-22 10:19N 36°08' W 005°25'1 0.7
2015-Jun-22 09:32N 36°08' W 005°25'0 0.0
2015-Jun-22 08:32N 36°08' W 005°25'0 0.0
2015-Jun-22 07:32N 36°08' W 005°25'0 0.0
2015-Jun-22 06:32N 36°08' W 005°25'0 0.0
2015-Jun-22 05:32N 36°08' W 005°25'0 0.0
2015-Jun-22 04:32N 36°08' W 005°25'0 0.0
2015-Jun-22 03:33N 36°08' W 005°25'  
Track history (hours):
 
Tides and Currents Weather Stations Pressure Air Temp Water Temp Dewpoint Dewpoint Depression Visibility Wind Speed Wind Dir Waves Ship Positions

CMA CGM Homere

Last reported at 2015-Jul-02 03:31 UTC. Time now 2015-Jul-04 07:00 UTC.
Position N 49°58' W 003°21'.

Length 170 m; draft 8.6 m.

Type: Ship (hazmat cat A). MMSI: 235052314.

Date/timePositionNaut miles runAvg speedWind from/ knotsBaromVisibWave heightAir tempDewpointWater temp
2015-Jul-02 03:31N 49°58' W 003°21'1919.6
2015-Jul-02 02:33N 50°01' W 002°52'2120.8
2015-Jul-02 01:34N 50°05' W 002°21'2221.3
2015-Jul-02 00:32N 49°59' W 001°48'2121.0
2015-Jul-01 23:33N 49°51' W 001°18'2019.5
2015-Jul-01 22:33N 49°44' W 000°51'1817.9
2015-Jul-01 21:33N 49°36' W 000°26'1615.8
2015-Jul-01 20:34N 49°29' W 000°03'9 8.6
2015-Jul-01 19:32N 49°29' E 000°10'0 0.0
2015-Jul-01 18:32N 49°29' E 000°10'0 0.0
2015-Jul-01 17:32N 49°29' E 000°10'0 0.0
2015-Jul-01 16:32N 49°29' E 000°10'0 0.0
2015-Jul-01 15:32N 49°29' E 000°10'0 0.0
2015-Jul-01 14:32N 49°29' E 000°10'0 0.0
2015-Jul-01 13:32N 49°29' E 000°10'0 0.0
2015-Jul-01 12:32N 49°29' E 000°10'0 0.0
2015-Jul-01 11:29N 49°29' E 000°10'0 0.0
2015-Jul-01 10:32N 49°29' E 000°10'0 0.0
2015-Jul-01 09:32N 49°29' E 000°10'0 0.0
2015-Jul-01 08:32N 49°29' E 000°10'0 0.0
2015-Jul-01 07:32N 49°29' E 000°10'0 0.0
2015-Jul-01 06:32N 49°29' E 000°10'0 0.0
2015-Jul-01 05:32N 49°29' E 000°10'0 0.0
2015-Jul-01 04:32N 49°29' E 000°10'0 0.0
2015-Jul-01 03:32N 49°29' E 000°10'0 0.0
2015-Jul-01 02:32N 49°29' E 000°10'0 0.0
2015-Jul-01 01:32N 49°29' E 000°10'0 0.0
2015-Jul-01 00:32N 49°29' E 000°10'0 0.0
2015-Jun-30 23:32N 49°29' E 000°10'0 0.0
2015-Jun-30 22:33N 49°29' E 000°10'0 0.3
2015-Jun-30 21:33N 49°28' E 000°10'2 1.6
2015-Jun-30 20:33N 49°28' E 000°07'6 5.5
2015-Jun-30 19:31N 49°29' W 000°01'0 0.1
2015-Jun-30 18:31N 49°29' W 000°01'0 0.2
2015-Jun-30 17:31N 49°29' W 000°02'0 0.0
2015-Jun-30 16:31N 49°29' W 000°02'0 0.0
2015-Jun-30 15:31N 49°29' W 000°02'0 0.0
2015-Jun-30 14:31N 49°29' W 000°02'0 0.0
2015-Jun-30 13:28N 49°29' W 000°02'0 0.0
2015-Jun-30 12:31N 49°29' W 000°02'0 0.0
2015-Jun-30 11:31N 49°29' W 000°02'0 0.0
2015-Jun-30 10:31N 49°29' W 000°02'0 0.1
2015-Jun-30 09:31N 49°29' W 000°01'0 0.0
2015-Jun-30 08:31N 49°29' W 000°01'0 0.0
2015-Jun-30 07:31N 49°29' W 000°01'0 0.2
2015-Jun-30 06:31N 49°29' W 000°02'0 0.1
2015-Jun-30 05:31N 49°29' W 000°02'0 0.1
2015-Jun-30 04:31N 49°29' W 000°02'0 0.0
2015-Jun-30 03:31N 49°29' W 000°02'0 0.0
2015-Jun-30 02:31N 49°29' W 000°02'0 0.0
2015-Jun-30 01:31N 49°29' W 000°02'0 0.0
2015-Jun-30 00:31N 49°29' W 000°02'0 0.0
2015-Jun-29 23:31N 49°29' W 000°02'0 0.2
2015-Jun-29 22:31N 49°29' W 000°01'0 0.0
2015-Jun-29 21:31N 49°29' W 000°01'0 0.0
2015-Jun-29 20:31N 49°29' W 000°01'0 0.1
2015-Jun-29 19:31N 49°29' W 000°01'9 9.1
2015-Jun-29 18:34N 49°26' E 000°11'1111.1
2015-Jun-29 17:34N 49°28' E 000°27'8 7.8
2015-Jun-29 16:34N 49°27' E 000°39'5 5.1
2015-Jun-29 15:32N 49°29' E 000°47'6 4.1
2015-Jun-29 14:08N 49°28' E 000°56'7 0.9
2015-Jun-29 06:08N 49°21' E 000°59'0 0.0
2015-Jun-28 20:28N 49°21' E 000°59'7 5.3
2015-Jun-28 19:08N 49°28' E 000°56'4 6.6
2015-Jun-28 18:28N 49°24' E 000°52'8 8.5
2015-Jun-28 17:31N 49°31' E 000°45'9 8.9
2015-Jun-28 16:33N 49°26' E 000°34'1010.2
2015-Jun-28 15:34N 49°26' E 000°19'1312.7
2015-Jun-28 14:33N 49°28' W 000°01'1110.6
2015-Jun-28 13:33N 49°33' W 000°15'1010.1
2015-Jun-28 12:33N 49°40' W 000°25'9 9.1
2015-Jun-28 11:33N 49°49' W 000°26'3410.9
2015-Jun-28 08:25N 50°21' W 000°06'910.8
2015-Jun-28 07:32N 50°29' E 000°03'1110.4
2015-Jun-28 06:30N 50°32' E 000°19'1010.3
2015-Jun-28 05:34N 50°35' E 000°34'1110.5
2015-Jun-28 04:33N 50°41' E 000°47'1211.9
2015-Jun-28 03:33N 50°49' E 001°01'1312.6
2015-Jun-28 02:31N 50°58' E 001°16'1212.5
2015-Jun-28 01:33N 51°06' E 001°30'1110.9
2015-Jun-28 00:33N 51°16' E 001°37'1111.2
2015-Jun-27 23:33N 51°26' E 001°29'1515.1
2015-Jun-27 22:33N 51°30' E 001°05'1717.1
2015-Jun-27 21:34N 51°30' E 000°38'1111.4
2015-Jun-27 20:33N 51°27' E 000°20'0 0.3
2015-Jun-27 19:33N 51°27' E 000°20'0 0.0
2015-Jun-27 18:34N 51°27' E 000°20'0 0.0
2015-Jun-27 17:34N 51°27' E 000°20'0 0.0
2015-Jun-27 16:34N 51°27' E 000°20'0 0.0
2015-Jun-27 15:34N 51°27' E 000°20'0 0.0
2015-Jun-27 14:34N 51°27' E 000°20'0 0.0
2015-Jun-27 13:34N 51°27' E 000°20'0 0.0
2015-Jun-27 12:34N 51°27' E 000°20'0 0.0
2015-Jun-27 11:34N 51°27' E 000°20'0 0.0
2015-Jun-27 10:34N 51°27' E 000°20'0 0.0
2015-Jun-27 09:34N 51°27' E 000°20'1 1.3
2015-Jun-27 08:33N 51°27' E 000°22'9 8.7
2015-Jun-27 07:33N 51°30' E 000°35'1313.4
2015-Jun-27 06:34N 51°29' E 000°56'1414.4
2015-Jun-27 05:34N 51°29' E 001°20'1010.0
2015-Jun-27 04:33N 51°29' E 001°36'1514.7
2015-Jun-27 03:34N 51°35' E 001°57'4816.1
2015-Jun-27 00:33N 52°02' E 003°02'1515.4
2015-Jun-26 23:33N 52°03' E 003°27'1414.5
2015-Jun-26 22:33N 52°03' E 003°50'1110.6
2015-Jun-26 21:33N 51°59' E 004°06'1010.4
2015-Jun-26 20:33N 51°54' E 004°20'3 2.6
2015-Jun-26 19:33N 51°53' E 004°24'0 0.0
2015-Jun-26 18:33N 51°53' E 004°24'0 0.0
2015-Jun-26 17:33N 51°53' E 004°24'0 0.0
2015-Jun-26 16:33N 51°53' E 004°24'0 0.0
2015-Jun-26 15:33N 51°53' E 004°24'0 0.0
2015-Jun-26 14:33N 51°53' E 004°24'0 0.0
2015-Jun-26 13:33N 51°53' E 004°24'0 0.0
2015-Jun-26 12:33N 51°53' E 004°24'0 0.0
2015-Jun-26 11:33N 51°53' E 004°24'0 0.0
2015-Jun-26 10:33N 51°53' E 004°24'0 0.0
2015-Jun-26 09:33N 51°53' E 004°24'0 0.0
2015-Jun-26 08:33N 51°53' E 004°24'0 0.0
2015-Jun-26 07:30N 51°53' E 004°24'0 0.0
2015-Jun-26 06:33N 51°53' E 004°24'0 0.0
2015-Jun-26 05:31N 51°53' E 004°24'0 0.0
2015-Jun-26 04:31N 51°53' E 004°24'0 0.0
2015-Jun-26 03:31N 51°53' E 004°24'0 0.0
2015-Jun-26 02:31N 51°53' E 004°24'0 0.0
2015-Jun-26 01:28N 51°53' E 004°24'0 0.0
2015-Jun-26 00:31N 51°53' E 004°24'0 0.0
2015-Jun-25 23:31N 51°53' E 004°24'0 0.0
2015-Jun-25 22:31N 51°53' E 004°24'0 0.0
2015-Jun-25 21:31N 51°53' E 004°24'0 0.1
2015-Jun-25 20:34N 51°53' E 004°24'6 6.5
2015-Jun-25 19:33N 51°55' E 004°14'1111.3
2015-Jun-25 18:33N 51°60' E 003°58'1212.4
2015-Jun-25 17:33N 51°58' E 003°38'1717.1
2015-Jun-25 16:33N 51°52' E 003°12'1918.4
2015-Jun-25 15:33N 51°46' E 002°43'1717.6
2015-Jun-25 14:34N 51°35' E 002°23'1817.8
2015-Jun-25 13:34N 51°22' E 002°02'1817.5
2015-Jun-25 12:34N 51°09' E 001°44'1817.5
2015-Jun-25 11:34N 50°55' E 001°27'1717.5
2015-Jun-25 10:33N 50°39' E 001°15'1817.7
2015-Jun-25 09:33N 50°29' E 000°52'1818.3
2015-Jun-25 08:33N 50°24' E 000°25'1818.3
2015-Jun-25 07:33N 50°20' W 000°03'1818.2
2015-Jun-25 06:34N 50°16' W 000°31'1818.3
2015-Jun-25 05:34N 50°11' W 000°59'1919.1
2015-Jun-25 04:33N 50°05' W 001°27'2019.9
2015-Jun-25 03:34N 49°60' W 001°57'2120.6
2015-Jun-25 02:32N 49°54' W 002°28'2120.3
2015-Jun-25 01:32N 49°47' W 002°58'2020.1
2015-Jun-25 00:33N 49°38' W 003°25'2220.0
2015-Jun-24 23:28N 49°27' W 003°54'2020.1
2015-Jun-24 22:30N 49°18' W 004°20'1920.1
2015-Jun-24 21:33N 49°08' W 004°45'2020.0
2015-Jun-24 20:34N 48°57' W 005°11'1919.1
2015-Jun-24 19:33N 48°47' W 005°36'1514.8
2015-Jun-24 18:33N 48°35' W 005°47'1717.4
2015-Jun-24 17:33N 48°19' W 005°60'1919.3
2015-Jun-24 16:34N 48°02' W 006°13'1919.3
2015-Jun-24 15:34N 47°45' W 006°26'1918.9
2015-Jun-24 14:34N 47°28' W 006°39'1919.4
2015-Jun-24 13:33N 47°11' W 006°52'2019.6
2015-Jun-24 12:33N 46°54' W 007°05'2319.6
2015-Jun-24 11:24N 46°34' W 007°21'63915.5
2015-Jun-22 18:08N 35°58' W 005°55'1317.5
2015-Jun-22 17:22N 35°58' W 005°38'1315.7
2015-Jun-22 16:34N 36°03' W 005°24'5 4.7
2015-Jun-22 15:33N 36°08' W 005°25'0 0.1
2015-Jun-22 14:18N 36°08' W 005°25'0 0.0
2015-Jun-22 13:33N 36°08' W 005°25'0 0.1
2015-Jun-22 12:24N 36°08' W 005°25'0 0.0
2015-Jun-22 11:33N 36°08' W 005°25'0 0.0
2015-Jun-22 10:19N 36°08' W 005°25'1 0.7
2015-Jun-22 09:32N 36°08' W 005°25'0 0.0
2015-Jun-22 08:32N 36°08' W 005°25'0 0.0
2015-Jun-22 07:32N 36°08' W 005°25'0 0.0
2015-Jun-22 06:32N 36°08' W 005°25'0 0.0
2015-Jun-22 05:32N 36°08' W 005°25'0 0.0
2015-Jun-22 04:32N 36°08' W 005°25'0 0.0
2015-Jun-22 03:33N 36°08' W 005°25'  

Dump ship's entire track history